createdAt,value
2017-11-15T00:00:04.316Z,8.20
2017-11-15T00:02:32.587Z,8.30
2017-11-15T00:05:00.860Z,8.30
2017-11-15T00:07:29.153Z,8.30
2017-11-15T00:09:57.420Z,8.30
2017-11-15T00:12:25.723Z,8.20
2017-11-15T00:14:53.979Z,8.30
2017-11-15T00:17:23.120Z,8.30
2017-11-15T00:19:52.019Z,8.20
2017-11-15T00:22:31.981Z,8.20
2017-11-15T00:25:00.292Z,8.20
2017-11-15T00:27:28.548Z,8.20
2017-11-15T00:29:56.808Z,8.20
2017-11-15T00:32:25.108Z,8.30
2017-11-15T00:34:54.262Z,8.20
2017-11-15T00:37:22.521Z,8.10
2017-11-15T00:39:50.825Z,8.10
2017-11-15T00:42:19.084Z,8.20
2017-11-15T00:44:47.342Z,8.20
2017-11-15T00:47:15.650Z,8.20
2017-11-15T00:49:44.314Z,8.10
2017-11-15T00:52:13.912Z,8.20
2017-11-15T00:54:43.437Z,8.20
2017-11-15T00:57:13.506Z,8.20
2017-11-15T00:59:41.796Z,8.30
2017-11-15T01:02:10.054Z,8.20
2017-11-15T01:04:38.344Z,8.20
2017-11-15T01:07:06.608Z,8.30
2017-11-15T01:09:34.901Z,8.20
2017-11-15T01:12:03.157Z,8.30
2017-11-15T01:14:31.462Z,8.30
2017-11-15T01:16:59.734Z,8.30
2017-11-15T01:19:27.992Z,8.20
2017-11-15T01:21:56.298Z,8.30
2017-11-15T01:24:23.793Z,8.30
2017-11-15T01:26:52.994Z,8.30
2017-11-15T01:29:23.027Z,8.20
2017-11-15T01:31:52.883Z,8.20
2017-11-15T01:34:22.829Z,8.30
2017-11-15T01:36:51.221Z,8.20
2017-11-15T01:39:19.486Z,8.30
2017-11-15T01:41:47.744Z,8.20
2017-11-15T01:44:16.041Z,8.20
2017-11-15T01:46:44.318Z,8.20
2017-11-15T01:49:13.783Z,8.20
2017-11-15T01:51:43.012Z,8.20
2017-11-15T01:54:12.014Z,8.20
2017-11-15T01:56:40.283Z,8.30
2017-11-15T01:59:08.572Z,8.30
2017-11-15T02:01:38.337Z,8.20
2017-11-15T02:04:06.598Z,8.20
2017-11-15T02:06:34.860Z,8.20
2017-11-15T02:09:03.167Z,8.20
2017-11-15T02:11:31.486Z,8.20
2017-11-15T02:13:59.754Z,8.10
2017-11-15T02:16:29.849Z,8.20
2017-11-15T02:18:58.164Z,8.20
2017-11-15T02:21:26.429Z,8.10
2017-11-15T02:23:54.711Z,8.20
2017-11-15T02:26:23.593Z,8.20
2017-11-15T02:28:52.956Z,8.10
2017-11-15T02:31:22.879Z,8.20
2017-11-15T02:33:52.501Z,8.30
2017-11-15T02:36:22.157Z,8.20
2017-11-15T02:38:50.472Z,8.20
2017-11-15T02:41:18.752Z,8.20
2017-11-15T02:43:47.010Z,8.20
2017-11-15T02:46:15.329Z,8.20
2017-11-15T02:48:43.628Z,8.20
2017-11-15T02:51:11.908Z,8.20
2017-11-15T02:53:40.213Z,8.10
2017-11-15T02:56:08.488Z,8.10
2017-11-15T02:58:36.749Z,8.20
2017-11-15T03:01:05.041Z,8.20
2017-11-15T03:03:33.327Z,8.20
2017-11-15T03:06:01.608Z,8.20
2017-11-15T03:08:29.897Z,8.10
2017-11-15T03:10:58.184Z,8.20
2017-11-15T03:13:26.477Z,8.20
2017-11-15T03:15:54.747Z,8.20
2017-11-15T03:18:23.803Z,8.20
2017-11-15T03:20:53.143Z,8.20
2017-11-15T03:23:22.162Z,8.10
2017-11-15T03:25:50.463Z,8.20
2017-11-15T03:28:18.775Z,8.10
2017-11-15T03:30:47.042Z,8.20
2017-11-15T03:33:15.360Z,8.20
2017-11-15T03:35:43.622Z,8.10
2017-11-15T03:38:12.347Z,8.10
2017-11-15T03:40:41.398Z,8.10
2017-11-15T03:43:09.693Z,8.10
2017-11-15T03:45:37.968Z,8.10
2017-11-15T03:48:06.244Z,8.10
2017-11-15T03:50:34.551Z,8.10
2017-11-15T03:53:02.849Z,8.10
2017-11-15T03:55:31.105Z,8.10
2017-11-15T03:57:59.380Z,8.10
2017-11-15T04:00:27.681Z,8.10
2017-11-15T04:02:55.974Z,8.10
2017-11-15T04:05:24.246Z,8.10
2017-11-15T04:07:52.548Z,8.20
2017-11-15T04:10:20.804Z,8.20
2017-11-15T04:12:49.066Z,8.10
2017-11-15T04:15:17.387Z,8.10
2017-11-15T04:17:45.646Z,8.00
2017-11-15T04:20:13.912Z,8.00
2017-11-15T04:22:43.417Z,8.00
2017-11-15T04:25:12.541Z,8.00
2017-11-15T04:27:41.306Z,8.10
2017-11-15T04:30:09.598Z,8.00
2017-11-15T04:32:37.908Z,8.00
2017-11-15T04:35:06.172Z,8.00
2017-11-15T04:37:34.465Z,8.00
2017-11-15T04:40:02.764Z,8.00
2017-11-15T04:42:31.071Z,8.00
2017-11-15T04:44:59.337Z,8.10
2017-11-15T04:47:27.631Z,8.10
2017-11-15T04:49:55.933Z,8.10
2017-11-15T04:52:24.189Z,8.00
2017-11-15T04:54:52.507Z,8.00
2017-11-15T04:57:20.817Z,8.10
2017-11-15T04:59:49.084Z,8.10
2017-11-15T05:02:17.402Z,8.00
2017-11-15T05:04:44.897Z,8.00
2017-11-15T05:07:13.153Z,8.00
2017-11-15T05:09:42.703Z,8.10
2017-11-15T05:12:11.379Z,8.10
2017-11-15T05:14:39.668Z,8.20
2017-11-15T05:17:07.917Z,8.10
2017-11-15T05:19:36.200Z,8.10
2017-11-15T05:22:04.493Z,8.20
2017-11-15T05:24:34.672Z,8.30
2017-11-15T05:27:02.966Z,8.20
2017-11-15T05:29:31.219Z,8.20
2017-11-15T05:31:59.516Z,8.20
2017-11-15T05:34:27.781Z,8.20
2017-11-15T05:36:56.079Z,8.20
2017-11-15T05:39:24.360Z,8.20
2017-11-15T05:41:52.630Z,8.20
2017-11-15T05:44:20.920Z,8.20
2017-11-15T05:46:49.187Z,8.10
2017-11-15T05:49:16.728Z,8.10
2017-11-15T05:51:44.997Z,8.20
2017-11-15T05:54:13.328Z,8.30
2017-11-15T05:56:42.477Z,8.20
2017-11-15T05:59:11.457Z,8.30
2017-11-15T06:01:39.751Z,8.30
2017-11-15T06:04:08.038Z,8.20
2017-11-15T06:06:36.297Z,8.20
2017-11-15T06:09:04.574Z,8.30
2017-11-15T06:11:32.893Z,8.20
2017-11-15T06:14:01.219Z,8.20
2017-11-15T06:16:29.504Z,8.30
2017-11-15T06:18:57.729Z,8.20
2017-11-15T06:21:26.168Z,8.20
2017-11-15T06:23:54.662Z,8.20
2017-11-15T06:26:24.286Z,8.20
2017-11-15T06:28:52.452Z,8.20
2017-11-15T06:31:20.847Z,8.30
2017-11-15T06:33:49.052Z,8.30
2017-11-15T06:36:17.339Z,8.30
2017-11-15T06:38:45.634Z,8.30
2017-11-15T06:41:13.928Z,8.30
2017-11-15T06:43:43.507Z,8.30
2017-11-15T06:46:11.796Z,8.30
2017-11-15T06:48:40.088Z,8.30
2017-11-15T06:51:08.374Z,8.30
2017-11-15T06:53:36.672Z,8.30
2017-11-15T06:56:04.930Z,8.20
2017-11-15T06:58:33.210Z,8.20
2017-11-15T07:01:01.506Z,8.20
2017-11-15T07:03:29.762Z,8.30
2017-11-15T07:05:58.075Z,8.30
2017-11-15T07:08:26.328Z,8.40
2017-11-15T07:10:54.606Z,8.30
2017-11-15T07:13:23.973Z,8.30
2017-11-15T07:15:53.081Z,8.30
2017-11-15T07:18:22.171Z,8.30
2017-11-15T07:20:50.428Z,8.40
2017-11-15T07:23:18.723Z,8.40
2017-11-15T07:25:46.998Z,8.50
2017-11-15T07:28:15.271Z,8.50
2017-11-15T07:30:56.561Z,8.50
2017-11-15T07:33:27.158Z,8.40
2017-11-15T07:36:06.204Z,8.40
2017-11-15T07:38:34.483Z,8.40
2017-11-15T07:41:09.943Z,8.50
2017-11-15T07:43:37.441Z,8.50
2017-11-15T07:46:05.705Z,8.50
2017-11-15T07:48:33.984Z,8.60
2017-11-15T07:51:02.277Z,8.70
2017-11-15T07:53:33.776Z,8.60
2017-11-15T07:56:02.065Z,8.70
2017-11-15T07:58:33.861Z,8.60
2017-11-15T08:01:02.160Z,8.60
2017-11-15T08:03:29.660Z,8.60
2017-11-15T08:05:57.922Z,8.60
2017-11-15T08:08:26.223Z,8.60
2017-11-15T08:10:54.481Z,8.60
2017-11-15T08:13:33.331Z,8.60
2017-11-15T08:16:01.588Z,8.60
2017-11-15T08:18:29.885Z,8.60
2017-11-15T08:20:58.175Z,8.60
2017-11-15T08:23:26.438Z,8.70
2017-11-15T08:25:54.736Z,8.70
2017-11-15T08:28:24.439Z,8.60
2017-11-15T08:30:53.896Z,8.70
2017-11-15T08:33:22.604Z,8.60
2017-11-15T08:35:50.871Z,8.60
2017-11-15T08:38:31.828Z,8.60
2017-11-15T08:41:00.101Z,8.60
2017-11-15T08:43:28.396Z,8.70
2017-11-15T08:45:56.672Z,8.60
2017-11-15T08:48:24.948Z,8.60
2017-11-15T08:50:54.353Z,8.60
2017-11-15T08:53:22.659Z,8.70
2017-11-15T08:55:50.924Z,8.70
2017-11-15T08:58:19.205Z,8.80
2017-11-15T09:00:47.569Z,8.90
2017-11-15T09:03:25.996Z,9.00
2017-11-15T09:05:54.279Z,8.90
2017-11-15T09:08:24.828Z,8.90
2017-11-15T09:10:54.034Z,8.90
2017-11-15T09:13:23.205Z,8.80
2017-11-15T09:15:52.248Z,8.90
2017-11-15T09:18:20.513Z,8.90
2017-11-15T09:20:48.773Z,8.90
2017-11-15T09:23:17.053Z,9.00
2017-11-15T09:25:45.308Z,9.00
2017-11-15T09:28:13.598Z,9.00
2017-11-15T09:30:41.889Z,9.00
2017-11-15T09:33:10.163Z,9.00
2017-11-15T09:35:38.424Z,9.00
2017-11-15T09:38:06.704Z,9.10
2017-11-15T09:40:34.960Z,9.00
2017-11-15T09:43:03.244Z,9.00
2017-11-15T09:45:31.515Z,9.00
2017-11-15T09:47:59.812Z,9.10
2017-11-15T09:50:28.073Z,9.00
2017-11-15T09:52:56.353Z,9.10
2017-11-15T09:55:23.839Z,9.10
2017-11-15T09:57:53.593Z,9.10
2017-11-15T10:00:23.027Z,9.10
2017-11-15T10:02:52.909Z,9.20
2017-11-15T10:05:21.273Z,9.10
2017-11-15T10:07:49.585Z,9.10
2017-11-15T10:10:17.847Z,9.10
2017-11-15T10:12:46.164Z,9.10
2017-11-15T10:15:14.444Z,9.10
2017-11-15T10:17:44.016Z,9.20
2017-11-15T10:20:13.433Z,9.30
2017-11-15T10:22:42.788Z,9.30
2017-11-15T10:25:11.440Z,9.20
2017-11-15T10:27:39.702Z,9.20
2017-11-15T10:30:07.997Z,9.20
2017-11-15T10:32:36.249Z,9.20
2017-11-15T10:35:04.530Z,9.20
2017-11-15T10:37:32.834Z,9.20
2017-11-15T10:40:01.115Z,9.30
2017-11-15T10:42:29.373Z,9.20
2017-11-15T10:44:57.676Z,9.20
2017-11-15T10:47:25.936Z,9.40
2017-11-15T10:49:54.196Z,9.40
2017-11-15T10:52:22.488Z,9.30
2017-11-15T10:54:50.741Z,9.30
2017-11-15T10:57:19.020Z,9.30
2017-11-15T10:59:47.315Z,9.30
2017-11-15T11:02:15.595Z,9.30
2017-11-15T11:04:43.893Z,9.30
2017-11-15T11:07:13.372Z,9.40
2017-11-15T11:09:42.432Z,9.40
2017-11-15T11:12:10.693Z,9.40
2017-11-15T11:14:39.981Z,9.40
2017-11-15T11:17:08.240Z,9.40
2017-11-15T11:19:36.549Z,9.40
2017-11-15T11:22:04.811Z,9.40
2017-11-15T11:24:33.840Z,9.40
2017-11-15T11:27:02.144Z,9.40
2017-11-15T11:29:30.405Z,9.40
2017-11-15T11:31:58.689Z,9.40
2017-11-15T11:34:26.952Z,9.40
2017-11-15T11:36:55.264Z,9.40
2017-11-15T11:39:23.543Z,9.40
2017-11-15T11:41:52.969Z,9.40
2017-11-15T11:44:22.775Z,9.40
2017-11-15T11:46:51.094Z,9.40
2017-11-15T11:49:19.356Z,9.40
2017-11-15T11:51:47.611Z,9.40
2017-11-15T11:54:15.907Z,9.40
2017-11-15T11:56:44.165Z,9.40
2017-11-15T11:59:13.590Z,9.40
2017-11-15T12:01:42.816Z,9.40
2017-11-15T12:04:11.508Z,9.40
2017-11-15T12:06:39.802Z,9.40
2017-11-15T12:09:07.292Z,9.50
2017-11-15T12:11:35.596Z,9.50
2017-11-15T12:14:03.853Z,9.50
2017-11-15T12:16:31.349Z,9.40
2017-11-15T12:18:59.636Z,9.40
2017-11-15T12:21:27.896Z,9.40
2017-11-15T12:23:56.172Z,9.40
2017-11-15T12:26:24.466Z,9.40
2017-11-15T12:28:53.074Z,9.40
2017-11-15T12:31:22.096Z,9.50
2017-11-15T12:33:50.392Z,9.50
2017-11-15T12:36:18.653Z,9.40
2017-11-15T12:38:47.455Z,9.50
2017-11-15T12:41:15.728Z,9.50
2017-11-15T12:43:44.041Z,9.40
2017-11-15T12:46:13.328Z,9.40
2017-11-15T12:48:42.659Z,9.40
2017-11-15T12:51:11.008Z,9.50
2017-11-15T12:53:39.296Z,9.50
2017-11-15T12:56:07.568Z,9.50
2017-11-15T12:58:35.827Z,9.50
2017-11-15T13:01:04.116Z,9.50
2017-11-15T13:03:32.396Z,9.60
2017-11-15T13:06:00.652Z,9.50
2017-11-15T13:08:28.904Z,9.50
2017-11-15T13:10:57.208Z,9.60
2017-11-15T13:13:25.496Z,9.60
2017-11-15T13:15:53.750Z,9.60
2017-11-15T13:18:23.511Z,9.50
2017-11-15T13:20:52.845Z,9.60
2017-11-15T13:23:21.145Z,9.60
2017-11-15T13:25:49.408Z,9.60
2017-11-15T13:28:17.703Z,9.70
2017-11-15T13:30:45.997Z,9.70
2017-11-15T13:33:14.252Z,9.70
2017-11-15T13:35:43.147Z,9.70
2017-11-15T13:38:12.405Z,9.70
2017-11-15T13:40:40.679Z,9.80
2017-11-15T13:43:08.968Z,9.80
2017-11-15T13:45:37.249Z,9.80
2017-11-15T13:48:05.532Z,9.80
2017-11-15T13:50:33.823Z,9.70
2017-11-15T13:53:02.100Z,9.70
2017-11-15T13:55:30.415Z,9.70
2017-11-15T13:57:57.908Z,9.70
2017-11-15T14:00:26.165Z,9.70
2017-11-15T14:02:54.473Z,9.80
2017-11-15T14:05:23.736Z,9.70
2017-11-15T14:07:51.279Z,9.80
2017-11-15T14:10:19.606Z,9.70
2017-11-15T14:12:47.919Z,9.70
2017-11-15T14:15:16.176Z,9.70
2017-11-15T14:17:44.433Z,9.70
2017-11-15T14:20:14.007Z,9.70
2017-11-15T14:22:43.088Z,9.70
2017-11-15T14:25:12.524Z,9.70
2017-11-15T14:27:40.847Z,9.70
2017-11-15T14:30:09.973Z,9.60
2017-11-15T14:32:38.244Z,9.60
2017-11-15T14:35:06.533Z,9.60
2017-11-15T14:37:34.780Z,9.60
2017-11-15T14:40:03.072Z,9.60
2017-11-15T14:42:31.446Z,9.70
2017-11-15T14:44:59.713Z,9.60
2017-11-15T14:47:28.005Z,9.60
2017-11-15T14:49:56.261Z,9.60
2017-11-15T14:52:24.553Z,9.60
2017-11-15T14:54:54.000Z,9.70
2017-11-15T14:57:21.525Z,9.60
2017-11-15T14:59:49.785Z,9.60
2017-11-15T15:02:18.096Z,9.60
2017-11-15T15:04:46.372Z,9.60
2017-11-15T15:07:14.641Z,9.60
2017-11-15T15:09:43.920Z,9.60
2017-11-15T15:12:13.108Z,9.60
2017-11-15T15:14:42.500Z,9.70
2017-11-15T15:17:10.791Z,9.60
2017-11-15T15:19:39.920Z,9.60
2017-11-15T15:22:08.180Z,9.60
2017-11-15T15:24:36.469Z,9.60
2017-11-15T15:27:04.725Z,9.60
2017-11-15T15:29:33.016Z,9.60
2017-11-15T15:32:01.330Z,9.70
2017-11-15T15:34:29.608Z,9.60
2017-11-15T15:36:57.900Z,9.60
2017-11-15T15:39:26.156Z,9.70
2017-11-15T15:41:54.464Z,9.70
2017-11-15T15:44:23.637Z,9.60
2017-11-15T15:46:53.096Z,9.60
2017-11-15T15:49:22.055Z,9.60
2017-11-15T15:51:50.323Z,9.50
2017-11-15T15:54:19.610Z,9.50
2017-11-15T15:56:47.916Z,9.50
2017-11-15T15:59:16.180Z,9.50
2017-11-15T16:01:44.483Z,9.50
2017-11-15T16:04:11.989Z,9.50
2017-11-15T16:06:40.276Z,9.50
2017-11-15T16:09:08.547Z,9.40
2017-11-15T16:11:36.860Z,9.50
2017-11-15T16:14:05.120Z,9.50
2017-11-15T16:16:33.408Z,9.40
2017-11-15T16:19:01.684Z,9.50
2017-11-15T16:21:29.984Z,9.50
2017-11-15T16:23:58.237Z,9.40
2017-11-15T16:26:26.526Z,9.40
2017-11-15T16:28:54.779Z,9.40
2017-11-15T16:31:24.065Z,9.40
2017-11-15T16:33:53.302Z,9.40
2017-11-15T16:36:21.593Z,9.40
2017-11-15T16:38:49.857Z,9.40
2017-11-15T16:41:18.160Z,9.50
2017-11-15T16:43:46.424Z,9.40
2017-11-15T16:46:15.645Z,9.40
2017-11-15T16:48:43.916Z,9.50
2017-11-15T16:51:12.168Z,9.40
2017-11-15T16:53:40.469Z,9.50
2017-11-15T16:56:08.747Z,9.40
2017-11-15T16:58:37.005Z,9.50
2017-11-15T17:01:05.307Z,9.50
2017-11-15T17:03:33.572Z,9.50
2017-11-15T17:06:01.855Z,9.50
2017-11-15T17:08:30.126Z,9.50
2017-11-15T17:10:58.434Z,9.40
2017-11-15T17:13:26.692Z,9.40
2017-11-15T17:15:54.209Z,9.40
2017-11-15T17:18:22.512Z,9.50
2017-11-15T17:20:50.802Z,9.40
2017-11-15T17:23:19.062Z,9.40
2017-11-15T17:25:47.368Z,9.40
2017-11-15T17:28:15.648Z,9.40
2017-11-15T17:30:43.904Z,9.40
2017-11-15T17:33:12.184Z,9.40
2017-11-15T17:35:40.446Z,9.40
2017-11-15T17:38:08.741Z,9.40
2017-11-15T17:40:37.001Z,9.50
2017-11-15T17:43:05.292Z,9.40
2017-11-15T17:45:33.557Z,9.40
2017-11-15T17:48:01.844Z,9.40
2017-11-15T17:50:30.124Z,9.40
2017-11-15T17:52:58.436Z,9.40
2017-11-15T17:55:26.732Z,9.50
2017-11-15T17:57:55.004Z,9.40
2017-11-15T18:00:23.996Z,9.40
2017-11-15T18:02:53.206Z,9.40
2017-11-15T18:05:22.077Z,9.40
2017-11-15T18:07:50.392Z,9.40
2017-11-15T18:10:18.666Z,9.50
2017-11-15T18:12:46.923Z,9.50
2017-11-15T18:15:16.787Z,9.50
2017-11-15T18:17:45.093Z,9.50
2017-11-15T18:20:13.357Z,9.40
2017-11-15T18:22:42.122Z,9.40
2017-11-15T18:25:10.433Z,9.50
2017-11-15T18:27:38.687Z,9.50
2017-11-15T18:30:06.956Z,9.50
2017-11-15T18:32:35.260Z,9.40
2017-11-15T18:35:03.563Z,9.40
2017-11-15T18:37:31.832Z,9.40
2017-11-15T18:39:59.321Z,9.40
2017-11-15T18:42:27.625Z,9.40
2017-11-15T18:44:55.896Z,9.50
2017-11-15T18:47:24.461Z,9.40
2017-11-15T18:49:53.585Z,9.40
2017-11-15T18:52:23.178Z,9.40
2017-11-15T18:54:52.337Z,9.30
2017-11-15T18:57:20.612Z,9.40
2017-11-15T18:59:48.897Z,9.40
2017-11-15T19:02:17.199Z,9.40
2017-11-15T19:04:45.456Z,9.50
2017-11-15T19:07:13.719Z,9.60
2017-11-15T19:09:43.021Z,9.50
2017-11-15T19:12:11.689Z,9.60
2017-11-15T19:14:39.945Z,9.50
2017-11-15T19:17:07.453Z,9.50
2017-11-15T19:19:35.736Z,9.40
2017-11-15T19:22:04.021Z,9.40
2017-11-15T19:24:32.269Z,9.40
2017-11-15T19:27:00.560Z,9.40
2017-11-15T19:29:28.850Z,9.30
2017-11-15T19:31:57.128Z,9.30
2017-11-15T19:34:25.438Z,9.30
2017-11-15T19:36:53.709Z,9.30
2017-11-15T19:39:22.927Z,9.40
2017-11-15T19:41:51.207Z,9.40
2017-11-15T19:44:19.551Z,9.40
2017-11-15T19:46:47.821Z,9.30
2017-11-15T19:49:16.089Z,9.30
2017-11-15T19:51:44.387Z,9.30
2017-11-15T19:54:13.269Z,9.30
2017-11-15T19:56:42.508Z,9.30
2017-11-15T19:59:10.796Z,9.30
2017-11-15T20:01:39.089Z,9.20
2017-11-15T20:04:07.364Z,9.30
2017-11-15T20:06:34.903Z,9.30
2017-11-15T20:09:03.185Z,9.30
2017-11-15T20:11:31.508Z,9.30
2017-11-15T20:13:59.764Z,9.20
2017-11-15T20:16:28.076Z,9.30
2017-11-15T20:18:56.329Z,9.20
2017-11-15T20:21:24.592Z,9.20
2017-11-15T20:23:53.600Z,9.20
2017-11-15T20:26:21.099Z,9.20
2017-11-15T20:28:49.415Z,9.20
2017-11-15T20:31:17.672Z,9.20
2017-11-15T20:33:45.935Z,9.30
2017-11-15T20:36:14.233Z,9.40
2017-11-15T20:38:43.172Z,9.30
2017-11-15T20:41:12.491Z,9.30
2017-11-15T20:43:40.752Z,9.40
2017-11-15T20:46:09.041Z,9.30
2017-11-15T20:48:37.315Z,9.30
2017-11-15T20:51:05.614Z,9.30
2017-11-15T20:53:33.891Z,9.30
2017-11-15T20:56:03.104Z,9.40
2017-11-15T20:58:31.396Z,9.30
2017-11-15T21:00:59.648Z,9.30
2017-11-15T21:03:27.932Z,9.30
2017-11-15T21:05:56.221Z,9.30
2017-11-15T21:08:24.513Z,9.30
2017-11-15T21:10:53.743Z,9.30
2017-11-15T21:13:22.907Z,9.40
2017-11-15T21:15:51.223Z,9.40
2017-11-15T21:18:19.592Z,9.40
2017-11-15T21:20:47.861Z,9.40
2017-11-15T21:23:16.163Z,9.40
2017-11-15T21:25:44.420Z,9.40
2017-11-15T21:28:13.364Z,9.40
2017-11-15T21:30:41.723Z,9.40
2017-11-15T21:33:09.985Z,9.40
2017-11-15T21:35:37.505Z,9.40
2017-11-15T21:38:05.778Z,9.40
2017-11-15T21:40:34.081Z,9.40
2017-11-15T21:43:02.337Z,9.40
2017-11-15T21:45:30.608Z,9.40
2017-11-15T21:47:58.900Z,9.40
2017-11-15T21:50:27.171Z,9.40
2017-11-15T21:52:57.651Z,9.40
2017-11-15T21:55:26.008Z,9.40
2017-11-15T21:57:54.319Z,9.40
2017-11-15T22:00:23.149Z,9.40
2017-11-15T22:02:52.089Z,9.40
2017-11-15T22:05:20.400Z,9.40
2017-11-15T22:07:48.697Z,9.40
2017-11-15T22:10:16.949Z,9.50
2017-11-15T22:12:45.205Z,9.40
2017-11-15T22:15:13.488Z,9.40
2017-11-15T22:17:42.696Z,9.40
2017-11-15T22:20:11.741Z,9.40
2017-11-15T22:22:40.044Z,9.40
2017-11-15T22:25:08.340Z,9.30
2017-11-15T22:27:36.608Z,9.40
2017-11-15T22:30:04.904Z,9.40
2017-11-15T22:32:33.192Z,9.40
2017-11-15T22:35:01.500Z,9.40
2017-11-15T22:37:29.777Z,9.40
2017-11-15T22:39:58.071Z,9.50
2017-11-15T22:42:26.386Z,9.40
2017-11-15T22:44:54.659Z,9.40
2017-11-15T22:47:23.080Z,9.40
2017-11-15T22:49:51.986Z,9.40
2017-11-15T22:52:20.267Z,9.30
2017-11-15T22:54:48.575Z,9.40
2017-11-15T22:57:16.865Z,9.30
2017-11-15T22:59:45.121Z,9.30
2017-11-15T23:02:13.436Z,9.30
2017-11-15T23:04:41.752Z,9.30
2017-11-15T23:07:10.048Z,9.30
2017-11-15T23:09:38.341Z,9.30
2017-11-15T23:12:06.606Z,9.30
2017-11-15T23:14:34.909Z,9.30
2017-11-15T23:17:03.172Z,9.30
2017-11-15T23:19:31.435Z,9.30
2017-11-15T23:21:59.733Z,9.30
2017-11-15T23:24:28.021Z,9.30
2017-11-15T23:26:56.323Z,9.30
2017-11-15T23:29:23.867Z,9.30
2017-11-15T23:31:53.323Z,9.30
2017-11-15T23:34:21.601Z,9.30
2017-11-15T23:36:49.859Z,9.40
2017-11-15T23:39:18.149Z,9.30
2017-11-15T23:41:46.428Z,9.30
2017-11-15T23:44:14.738Z,9.30
2017-11-15T23:46:44.127Z,9.30
2017-11-15T23:49:13.472Z,9.40
2017-11-15T23:51:42.472Z,9.30
2017-11-15T23:54:10.765Z,9.30
2017-11-15T23:56:39.029Z,9.30
2017-11-15T23:59:07.320Z,9.30
